createdAt,value
2019-05-19T00:02:18.008Z,92716.84
2019-05-19T00:04:46.443Z,92716.90
2019-05-19T00:07:15.203Z,92720.87
2019-05-19T00:09:43.703Z,92710.45
2019-05-19T00:12:12.192Z,92714.37
2019-05-19T00:14:40.611Z,92710.56
2019-05-19T00:17:09.009Z,92712.72
2019-05-19T00:19:37.527Z,92719.81
2019-05-19T00:22:05.936Z,92717.27
2019-05-19T00:24:34.337Z,92718.10
2019-05-19T00:27:02.731Z,92723.84
2019-05-19T00:29:31.173Z,92719.05
2019-05-19T00:31:59.665Z,92724.84
2019-05-19T00:34:28.071Z,92724.61
2019-05-19T00:36:56.466Z,92724.15
2019-05-19T00:39:25.357Z,92725.51
2019-05-19T00:41:53.812Z,92720.69
2019-05-19T00:44:22.218Z,92717.95
2019-05-19T00:46:50.607Z,92715.89
2019-05-19T00:49:19.380Z,92716.46
2019-05-19T00:51:47.785Z,92703.42
2019-05-19T00:54:16.185Z,92722.57
2019-05-19T00:56:45.018Z,92709.34
2019-05-19T00:59:14.252Z,92717.41
2019-05-19T01:01:43.004Z,92713.55
2019-05-19T01:04:11.404Z,92717.77
2019-05-19T01:06:39.799Z,92718.99
2019-05-19T01:09:08.547Z,92720.25
2019-05-19T01:11:37.266Z,92720.74
2019-05-19T01:14:05.736Z,92716.89
2019-05-19T01:16:34.127Z,92718.94
2019-05-19T01:19:02.538Z,92716.66
2019-05-19T01:21:31.847Z,92719.73
2019-05-19T01:24:00.257Z,92720.06
2019-05-19T01:26:28.942Z,92720.02
2019-05-19T01:28:57.352Z,92719.27
2019-05-19T01:31:25.805Z,92719.78
2019-05-19T01:33:54.244Z,92716.10
2019-05-19T01:36:22.640Z,92721.03
2019-05-19T01:38:51.038Z,92716.33
2019-05-19T01:41:19.422Z,92717.30
2019-05-19T01:43:47.825Z,92719.80
2019-05-19T01:46:16.221Z,92722.54
2019-05-19T01:48:44.902Z,92723.19
2019-05-19T01:51:13.260Z,92720.41
2019-05-19T01:53:41.663Z,92719.52
2019-05-19T01:56:10.322Z,92722.80
2019-05-19T01:58:38.714Z,92719.12
2019-05-19T02:01:07.383Z,92721.73
2019-05-19T02:03:35.783Z,92718.95
2019-05-19T02:06:04.452Z,92713.38
2019-05-19T02:08:32.859Z,92716.45
2019-05-19T02:11:01.247Z,92715.02
2019-05-19T02:13:29.667Z,92720.59
2019-05-19T02:15:58.061Z,92720.98
2019-05-19T02:18:26.459Z,92712.80
2019-05-19T02:20:54.846Z,92710.88
2019-05-19T02:23:23.254Z,92709.44
2019-05-19T02:25:51.639Z,92711.08
2019-05-19T02:28:20.037Z,92712.48
2019-05-19T02:30:48.428Z,92709.58
2019-05-19T02:33:16.818Z,92709.97
2019-05-19T02:35:45.551Z,92703.38
2019-05-19T02:38:13.932Z,92702.52
2019-05-19T02:40:45.368Z,92704.55
2019-05-19T02:43:15.770Z,92708.92
2019-05-19T02:45:45.603Z,92702.88
2019-05-19T02:48:14.436Z,92701.48
2019-05-19T02:50:52.360Z,92702.26
2019-05-19T02:53:17.113Z,92696.25
2019-05-19T02:55:46.266Z,92701.73
2019-05-19T02:58:14.997Z,92703.41
2019-05-19T03:00:43.765Z,92697.63
2019-05-19T03:03:12.237Z,92698.34
2019-05-19T03:05:40.622Z,92705.78
2019-05-19T03:08:09.498Z,92706.92
2019-05-19T03:10:38.181Z,92705.23
2019-05-19T03:13:06.586Z,92705.98
2019-05-19T03:15:35.248Z,92711.82
2019-05-19T03:18:03.636Z,92708.48
2019-05-19T03:20:32.103Z,92714.79
2019-05-19T03:23:00.491Z,92717.17
2019-05-19T03:25:29.181Z,92720.14
2019-05-19T03:27:57.866Z,92720.98
2019-05-19T03:30:28.187Z,92718.38
2019-05-19T03:33:01.359Z,92718.14
2019-05-19T03:35:29.741Z,92714.52
2019-05-19T03:37:58.125Z,92713.59
2019-05-19T03:40:26.527Z,92712.81
2019-05-19T03:42:54.924Z,92712.29
2019-05-19T03:45:23.600Z,92713.83
2019-05-19T03:47:52.010Z,92710.43
2019-05-19T03:50:20.391Z,92706.52
2019-05-19T03:52:49.130Z,92712.52
2019-05-19T03:55:17.604Z,92716.95
2019-05-19T03:57:45.996Z,92716.67
2019-05-19T04:00:14.731Z,92717.97
2019-05-19T04:02:43.113Z,92727.81
2019-05-19T04:05:11.795Z,92725.92
2019-05-19T04:07:40.189Z,92729.16
2019-05-19T04:10:09.314Z,92717.89
2019-05-19T04:12:37.706Z,92720.41
2019-05-19T04:15:06.938Z,92718.88
2019-05-19T04:17:35.323Z,92723.94
2019-05-19T04:20:04.694Z,92723.13
2019-05-19T04:22:33.082Z,92721.72
2019-05-19T04:25:01.481Z,92726.20
2019-05-19T04:27:29.862Z,92728.13
2019-05-19T04:29:58.627Z,92726.07
2019-05-19T04:32:27.023Z,92721.30
2019-05-19T04:34:55.412Z,92721.77
2019-05-19T04:37:23.825Z,92721.53
2019-05-19T04:39:52.548Z,92719.70
2019-05-19T04:42:21.252Z,92731.47
2019-05-19T04:44:49.634Z,92734.70
2019-05-19T04:47:18.017Z,92738.44
2019-05-19T04:49:46.416Z,92737.52
2019-05-19T04:52:14.810Z,92733.02
2019-05-19T04:54:43.202Z,92733.34
2019-05-19T04:57:11.912Z,92735.04
2019-05-19T04:59:40.330Z,92734.77
2019-05-19T05:02:08.740Z,92733.72
2019-05-19T05:04:37.140Z,92733.12
2019-05-19T05:07:05.547Z,92731.61
2019-05-19T05:09:33.945Z,92732.86
2019-05-19T05:12:02.595Z,92729.17
2019-05-19T05:14:30.986Z,92730.65
2019-05-19T05:16:59.662Z,92722.66
2019-05-19T05:19:28.052Z,92720.74
2019-05-19T05:21:56.723Z,92720.66
2019-05-19T05:24:28.469Z,92718.94
2019-05-19T05:26:55.556Z,92712.60
2019-05-19T05:29:23.953Z,92714.83
2019-05-19T05:31:52.362Z,92707.37
2019-05-19T05:34:21.081Z,92705.30
2019-05-19T05:36:49.485Z,92707.42
2019-05-19T05:39:17.896Z,92704.03
2019-05-19T05:41:46.629Z,92703.91
2019-05-19T05:44:15.023Z,92700.95
2019-05-19T05:46:43.418Z,92698.44
2019-05-19T05:49:12.080Z,92699.56
2019-05-19T05:51:40.778Z,92700.00
2019-05-19T05:54:09.456Z,92692.78
2019-05-19T05:56:37.861Z,92696.11
2019-05-19T05:59:06.518Z,92695.52
2019-05-19T06:01:35.208Z,92690.39
2019-05-19T06:04:03.829Z,92692.95
2019-05-19T06:06:32.232Z,92685.59
2019-05-19T06:09:00.956Z,92682.12
2019-05-19T06:11:29.645Z,92680.88
2019-05-19T06:13:58.330Z,92676.52
2019-05-19T06:16:27.017Z,92677.95
2019-05-19T06:18:56.859Z,92678.70
2019-05-19T06:21:25.388Z,92686.42
2019-05-19T06:23:53.777Z,92686.87
2019-05-19T06:26:22.183Z,92685.82
2019-05-19T06:28:50.857Z,92695.25
2019-05-19T06:31:19.291Z,92686.45
2019-05-19T06:33:47.679Z,92689.60
2019-05-19T06:36:16.081Z,92679.41
2019-05-19T06:38:44.803Z,92689.16
2019-05-19T06:41:13.443Z,92686.66
2019-05-19T06:43:42.156Z,92682.81
2019-05-19T06:46:10.549Z,92684.67
2019-05-19T06:48:38.934Z,92679.73
2019-05-19T06:51:07.336Z,92671.20
2019-05-19T06:53:35.737Z,92662.17
2019-05-19T06:56:04.106Z,92667.17
2019-05-19T06:58:32.490Z,92669.10
2019-05-19T07:01:00.887Z,92661.77
2019-05-19T07:03:29.630Z,92655.79
2019-05-19T07:05:58.307Z,92654.55
2019-05-19T07:08:26.672Z,92668.02
2019-05-19T07:10:55.073Z,92665.80
2019-05-19T07:13:23.461Z,92664.97
2019-05-19T07:15:52.118Z,92666.78
2019-05-19T07:18:20.796Z,92662.00
2019-05-19T07:20:49.195Z,92661.87
2019-05-19T07:23:27.818Z,92660.68
2019-05-19T07:25:47.689Z,92659.31
2019-05-19T07:28:16.075Z,92657.23
2019-05-19T07:30:45.055Z,92659.70
2019-05-19T07:33:13.449Z,92659.27
2019-05-19T07:35:42.112Z,92659.52
2019-05-19T07:38:10.510Z,92655.03
2019-05-19T07:40:38.894Z,92655.56
2019-05-19T07:43:07.562Z,92659.64
2019-05-19T07:45:35.936Z,92658.37
2019-05-19T07:48:04.331Z,92660.59
2019-05-19T07:50:32.717Z,92666.50
2019-05-19T07:53:01.131Z,92658.41
2019-05-19T07:55:29.501Z,92666.09
2019-05-19T07:57:58.327Z,92666.20
2019-05-19T08:00:26.714Z,92661.05
2019-05-19T08:02:55.174Z,92666.38
2019-05-19T08:05:23.903Z,92667.48
2019-05-19T08:07:52.306Z,92660.13
2019-05-19T08:10:20.969Z,92662.20
2019-05-19T08:12:49.370Z,92662.33
2019-05-19T08:15:18.243Z,92659.22
2019-05-19T08:17:46.666Z,92660.95
2019-05-19T08:20:15.990Z,92667.98
2019-05-19T08:22:44.385Z,92664.33
2019-05-19T08:25:13.008Z,92670.84
2019-05-19T08:27:41.391Z,92666.44
2019-05-19T08:30:10.328Z,92666.70
2019-05-19T08:32:39.045Z,92667.84
2019-05-19T08:35:08.241Z,92663.80
2019-05-19T08:37:36.650Z,92660.84
2019-05-19T08:40:05.885Z,92667.14
2019-05-19T08:42:34.608Z,92661.78
2019-05-19T08:45:03.174Z,92659.91
2019-05-19T08:47:31.569Z,92655.70
2019-05-19T08:50:00.260Z,92661.37
2019-05-19T08:52:28.663Z,92650.86
2019-05-19T08:54:57.036Z,92651.91
2019-05-19T08:57:25.520Z,92648.03
2019-05-19T08:59:54.286Z,92649.42
2019-05-19T09:02:22.682Z,92651.70
2019-05-19T09:04:51.064Z,92647.08
2019-05-19T09:07:19.455Z,92647.50
2019-05-19T09:09:48.029Z,92640.88
2019-05-19T09:12:17.108Z,92636.14
2019-05-19T09:14:45.496Z,92632.30
2019-05-19T09:17:14.214Z,92625.16
2019-05-19T09:19:42.570Z,92624.96
2019-05-19T09:22:11.253Z,92622.25
2019-05-19T09:24:39.631Z,92626.89
2019-05-19T09:27:08.026Z,92630.90
2019-05-19T09:29:36.402Z,92632.36
2019-05-19T09:32:04.803Z,92624.50
2019-05-19T09:34:33.485Z,92621.94
2019-05-19T09:37:01.905Z,92621.84
2019-05-19T09:39:30.256Z,92626.23
2019-05-19T09:41:58.656Z,92624.28
2019-05-19T09:44:27.046Z,92627.36
2019-05-19T09:46:55.445Z,92624.43
2019-05-19T09:49:34.353Z,92628.66
2019-05-19T09:52:04.981Z,92625.58
2019-05-19T09:54:44.577Z,92628.14
2019-05-19T09:57:03.848Z,92628.72
2019-05-19T09:59:32.222Z,92623.42
2019-05-19T10:02:00.609Z,92627.22
2019-05-19T10:04:29.755Z,92630.22
2019-05-19T10:06:58.153Z,92625.12
2019-05-19T10:09:39.009Z,92623.34
2019-05-19T10:12:08.828Z,92614.38
2019-05-19T10:14:37.518Z,92604.88
2019-05-19T10:17:05.925Z,92605.70
2019-05-19T10:19:34.585Z,92612.79
2019-05-19T10:22:02.981Z,92609.53
2019-05-19T10:24:31.370Z,92605.25
2019-05-19T10:26:59.763Z,92598.14
2019-05-19T10:29:28.294Z,92598.14
2019-05-19T10:31:56.720Z,92600.52
2019-05-19T10:34:25.103Z,92600.11
2019-05-19T10:36:53.752Z,92596.00
2019-05-19T10:39:22.133Z,92592.37
2019-05-19T10:41:50.518Z,92589.81
2019-05-19T10:44:18.913Z,92586.98
2019-05-19T10:46:47.587Z,92598.34
2019-05-19T10:49:15.977Z,92602.91
2019-05-19T10:51:44.358Z,92602.55
2019-05-19T10:54:12.752Z,92599.28
2019-05-19T10:56:41.190Z,92596.86
2019-05-19T10:59:09.580Z,92594.49
2019-05-19T11:01:37.965Z,92594.49
2019-05-19T11:04:06.366Z,92593.09
2019-05-19T11:06:34.749Z,92595.34
2019-05-19T11:09:04.831Z,92588.09
2019-05-19T11:11:33.217Z,92593.13
2019-05-19T11:14:01.610Z,92587.04
2019-05-19T11:16:29.999Z,92574.89
2019-05-19T11:18:58.391Z,92575.35
2019-05-19T11:21:27.035Z,92579.09
2019-05-19T11:23:55.425Z,92584.08
2019-05-19T11:26:23.809Z,92577.92
2019-05-19T11:28:52.207Z,92567.09
2019-05-19T11:31:20.595Z,92571.88
2019-05-19T11:33:49.251Z,92574.36
2019-05-19T11:36:17.634Z,92574.92
2019-05-19T11:38:46.100Z,92574.92
2019-05-19T11:41:14.507Z,92571.17
2019-05-19T11:43:42.877Z,92554.66
2019-05-19T11:46:11.548Z,92572.29
2019-05-19T11:48:39.947Z,92562.55
2019-05-19T11:51:08.335Z,92567.23
2019-05-19T11:53:36.722Z,92561.61
2019-05-19T11:56:08.017Z,92563.24
2019-05-19T11:58:35.300Z,92560.45
2019-05-19T12:01:03.748Z,92557.16
2019-05-19T12:03:32.147Z,92550.04
2019-05-19T12:06:00.530Z,92551.48
2019-05-19T12:08:28.933Z,92550.39
2019-05-19T12:10:57.313Z,92545.05
2019-05-19T12:13:25.976Z,92543.32
2019-05-19T12:15:54.374Z,92544.88
2019-05-19T12:18:23.089Z,92539.97
2019-05-19T12:20:51.477Z,92540.73
2019-05-19T12:23:19.871Z,92536.53
2019-05-19T12:25:49.794Z,92530.55
2019-05-19T12:28:18.189Z,92530.73
2019-05-19T12:30:46.885Z,92524.64
2019-05-19T12:33:15.296Z,92526.71
2019-05-19T12:35:44.064Z,92531.39
2019-05-19T12:38:12.449Z,92527.37
2019-05-19T12:40:42.012Z,92525.41
2019-05-19T12:43:10.399Z,92530.38
2019-05-19T12:45:38.862Z,92529.31
2019-05-19T12:48:07.414Z,92523.92
2019-05-19T12:50:36.069Z,92525.42
2019-05-19T12:53:04.451Z,92528.45
2019-05-19T12:55:32.844Z,92520.88
2019-05-19T12:58:01.224Z,92521.59
2019-05-19T13:00:29.639Z,92522.19
2019-05-19T13:02:58.276Z,92519.03
2019-05-19T13:05:26.967Z,92511.59
2019-05-19T13:07:55.347Z,92510.93
2019-05-19T13:10:23.807Z,92509.81
2019-05-19T13:12:52.215Z,92495.36
2019-05-19T13:15:20.672Z,92495.36
2019-05-19T13:17:49.051Z,92504.12
2019-05-19T13:20:17.678Z,92502.50
2019-05-19T13:22:46.334Z,92496.44
2019-05-19T13:25:14.793Z,92502.05
2019-05-19T13:27:43.177Z,92502.05
2019-05-19T13:30:11.985Z,92507.03
2019-05-19T13:32:40.368Z,92500.07
2019-05-19T13:35:09.358Z,92508.64
2019-05-19T13:37:37.743Z,92497.38
2019-05-19T13:40:06.786Z,92493.84
2019-05-19T13:42:35.513Z,92493.84
2019-05-19T13:45:08.396Z,92497.45
2019-05-19T13:47:37.087Z,92499.97
2019-05-19T13:50:08.755Z,92492.09
2019-05-19T13:52:37.212Z,92487.18
2019-05-19T13:55:07.178Z,92487.09
2019-05-19T13:57:35.844Z,92490.35
2019-05-19T14:00:05.739Z,92493.28
2019-05-19T14:02:34.127Z,92495.73
2019-05-19T14:05:02.539Z,92505.00
2019-05-19T14:07:30.910Z,92507.41
2019-05-19T14:09:59.305Z,92508.86
2019-05-19T14:12:27.687Z,92510.58
2019-05-19T14:14:56.092Z,92516.84
2019-05-19T14:17:24.481Z,92517.02
2019-05-19T14:19:53.241Z,92518.83
2019-05-19T14:22:21.635Z,92549.58
2019-05-19T14:24:50.013Z,92549.58
2019-05-19T14:27:29.370Z,92557.27
2019-05-19T14:29:48.790Z,92547.31
2019-05-19T14:32:17.179Z,92568.17
2019-05-19T14:34:45.579Z,92586.98
2019-05-19T14:37:14.233Z,92589.06
2019-05-19T14:39:42.624Z,92597.14
2019-05-19T14:42:12.670Z,92610.89
2019-05-19T14:44:41.045Z,92609.47
2019-05-19T14:47:09.801Z,92613.47
2019-05-19T14:49:38.193Z,92604.96
2019-05-19T14:52:06.585Z,92614.03
2019-05-19T14:54:34.964Z,92619.00
2019-05-19T14:57:03.360Z,92628.41
2019-05-19T14:59:31.749Z,92627.95
2019-05-19T15:02:00.136Z,92602.50
2019-05-19T15:04:28.525Z,92585.45
2019-05-19T15:06:57.247Z,92570.59
2019-05-19T15:09:25.653Z,92574.61
2019-05-19T15:11:54.322Z,92575.47
2019-05-19T15:14:22.699Z,92573.34
2019-05-19T15:16:51.094Z,92563.26
2019-05-19T15:19:19.482Z,92555.95
2019-05-19T15:21:47.883Z,92543.33
2019-05-19T15:24:16.266Z,92532.02
2019-05-19T15:26:44.674Z,92525.45
2019-05-19T15:29:13.064Z,92528.52
2019-05-19T15:31:41.464Z,92522.33
2019-05-19T15:34:09.862Z,92526.05
2019-05-19T15:36:38.258Z,92531.66
2019-05-19T15:39:06.790Z,92526.01
2019-05-19T15:41:35.276Z,92523.63
2019-05-19T15:44:03.610Z,92522.36
2019-05-19T15:46:32.004Z,92528.73
2019-05-19T15:49:00.394Z,92527.42
2019-05-19T15:51:34.787Z,92525.23
2019-05-19T15:53:58.909Z,92529.72
2019-05-19T15:56:28.059Z,92539.37
2019-05-19T15:58:56.443Z,92552.20
2019-05-19T16:01:24.897Z,92555.16
2019-05-19T16:03:53.298Z,92557.13
2019-05-19T16:06:22.031Z,92559.75
2019-05-19T16:08:50.719Z,92558.89
2019-05-19T16:11:19.114Z,92552.54
2019-05-19T16:13:47.789Z,92557.91
2019-05-19T16:16:16.193Z,92548.60
2019-05-19T16:18:44.574Z,92544.44
2019-05-19T16:21:12.971Z,92538.94
2019-05-19T16:23:41.347Z,92540.36
2019-05-19T16:26:09.741Z,92532.61
2019-05-19T16:28:38.125Z,92534.35
2019-05-19T16:31:06.861Z,92537.52
2019-05-19T16:33:35.249Z,92534.35
2019-05-19T16:36:03.636Z,92534.89
2019-05-19T16:38:32.031Z,92533.25
2019-05-19T16:41:00.413Z,92530.19
2019-05-19T16:43:28.807Z,92536.66
2019-05-19T16:45:57.192Z,92537.72
2019-05-19T16:48:26.128Z,92539.81
2019-05-19T16:50:54.522Z,92540.25
2019-05-19T16:53:22.919Z,92542.45
2019-05-19T16:55:51.318Z,92539.81
2019-05-19T16:58:21.489Z,92541.91
2019-05-19T17:00:49.894Z,92535.58
2019-05-19T17:03:18.280Z,92538.52
2019-05-19T17:05:47.044Z,92538.18
2019-05-19T17:08:15.433Z,92536.52
2019-05-19T17:10:43.841Z,92536.11
2019-05-19T17:13:12.241Z,92538.95
2019-05-19T17:15:40.623Z,92538.73
2019-05-19T17:18:09.338Z,92547.61
2019-05-19T17:20:37.737Z,92554.72
2019-05-19T17:23:06.157Z,92558.02
2019-05-19T17:25:34.543Z,92564.13
2019-05-19T17:28:03.262Z,92568.53
2019-05-19T17:30:31.659Z,92565.98
2019-05-19T17:33:00.074Z,92570.27
2019-05-19T17:35:28.458Z,92569.63
2019-05-19T17:37:56.851Z,92574.11
2019-05-19T17:40:25.571Z,92573.70
2019-05-19T17:42:54.255Z,92570.50
2019-05-19T17:45:23.699Z,92578.97
2019-05-19T17:47:53.658Z,92580.18
2019-05-19T17:50:33.367Z,92582.36
2019-05-19T17:53:02.536Z,92587.63
2019-05-19T17:55:33.018Z,92599.04
2019-05-19T17:58:02.155Z,92601.31
2019-05-19T18:00:39.333Z,92615.89
2019-05-19T18:03:09.120Z,92627.50
2019-05-19T18:05:37.741Z,92645.02
2019-05-19T18:08:06.509Z,92641.47
2019-05-19T18:10:35.055Z,92654.07
2019-05-19T18:13:03.793Z,92660.63
2019-05-19T18:15:32.178Z,92656.55
2019-05-19T18:18:00.962Z,92653.02
2019-05-19T18:20:29.661Z,92653.99
2019-05-19T18:22:58.177Z,92650.03
2019-05-19T18:25:26.610Z,92641.37
2019-05-19T18:27:54.981Z,92645.41
2019-05-19T18:30:25.524Z,92630.94
2019-05-19T18:32:53.913Z,92613.95
2019-05-19T18:35:22.313Z,92620.91
2019-05-19T18:37:50.693Z,92618.60
2019-05-19T18:40:19.565Z,92619.67
2019-05-19T18:42:47.953Z,92616.58
2019-05-19T18:45:16.697Z,92614.27
2019-05-19T18:47:45.456Z,92604.17
2019-05-19T18:50:14.290Z,92612.36
2019-05-19T18:52:42.978Z,92617.77
2019-05-19T18:55:11.719Z,92615.45
2019-05-19T18:57:40.119Z,92607.45
2019-05-19T19:00:09.062Z,92606.58
2019-05-19T19:02:37.518Z,92606.42
2019-05-19T19:05:07.236Z,92608.04
2019-05-19T19:07:55.400Z,92604.59
2019-05-19T19:10:25.433Z,92610.94
2019-05-19T19:12:54.082Z,92614.74
2019-05-19T19:15:22.720Z,92606.18
2019-05-19T19:17:51.119Z,92611.77
2019-05-19T19:20:19.699Z,92611.30
2019-05-19T19:22:48.146Z,92610.45
2019-05-19T19:25:16.538Z,92612.17
2019-05-19T19:27:44.931Z,92615.57
2019-05-19T19:30:13.864Z,92618.50
2019-05-19T19:32:42.281Z,92619.81
2019-05-19T19:35:10.806Z,92620.12
2019-05-19T19:37:39.193Z,92627.38
2019-05-19T19:40:08.156Z,92629.58
2019-05-19T19:42:36.891Z,92627.86
2019-05-19T19:45:07.013Z,92633.33
2019-05-19T19:47:35.398Z,92638.89
2019-05-19T19:50:05.774Z,92633.86
2019-05-19T19:52:34.227Z,92649.16
2019-05-19T19:55:02.626Z,92656.03
2019-05-19T19:57:31.254Z,92659.34
2019-05-19T19:59:59.657Z,92660.66
2019-05-19T20:02:28.150Z,92666.56
2019-05-19T20:04:56.548Z,92661.87
2019-05-19T20:07:24.940Z,92667.44
2019-05-19T20:09:53.670Z,92663.81
2019-05-19T20:12:22.055Z,92665.68
2019-05-19T20:14:50.445Z,92663.11
2019-05-19T20:17:18.833Z,92666.03
2019-05-19T20:19:47.237Z,92675.53
2019-05-19T20:22:15.614Z,92671.59
2019-05-19T20:24:43.999Z,92678.24
2019-05-19T20:27:12.500Z,92671.16
2019-05-19T20:29:41.211Z,92675.53
2019-05-19T20:32:09.608Z,92676.70
2019-05-19T20:34:38.005Z,92680.73
2019-05-19T20:37:06.660Z,92681.04
2019-05-19T20:39:35.055Z,92686.06
2019-05-19T20:42:03.518Z,92683.66
2019-05-19T20:44:32.229Z,92685.53
2019-05-19T20:47:00.617Z,92682.30
2019-05-19T20:49:29.003Z,92680.41
2019-05-19T20:51:57.392Z,92681.28
2019-05-19T20:54:25.786Z,92681.84
2019-05-19T20:56:54.173Z,92687.39
2019-05-19T20:59:22.558Z,92678.86
2019-05-19T21:01:50.942Z,92677.94
2019-05-19T21:04:19.346Z,92668.84
2019-05-19T21:06:48.084Z,92666.23
2019-05-19T21:09:16.774Z,92665.64
2019-05-19T21:11:45.471Z,92664.41
2019-05-19T21:14:13.847Z,92665.28
2019-05-19T21:16:42.236Z,92666.67
2019-05-19T21:19:10.617Z,92670.61
2019-05-19T21:21:39.011Z,92666.90
2019-05-19T21:24:07.658Z,92671.36
2019-05-19T21:26:36.305Z,92673.01
2019-05-19T21:29:04.759Z,92668.59
2019-05-19T21:31:33.397Z,92662.05
2019-05-19T21:34:01.786Z,92664.05
2019-05-19T21:36:30.183Z,92664.61
2019-05-19T21:38:58.577Z,92667.56
2019-05-19T21:41:27.238Z,92668.09
2019-05-19T21:43:55.618Z,92669.55
2019-05-19T21:46:24.015Z,92674.48
2019-05-19T21:48:52.406Z,92670.77
2019-05-19T21:51:20.813Z,92672.08
2019-05-19T21:53:49.368Z,92668.94
2019-05-19T21:56:17.757Z,92673.62
2019-05-19T21:58:46.141Z,92678.41
2019-05-19T22:01:22.921Z,92673.48
2019-05-19T22:03:45.020Z,92674.88
2019-05-19T22:06:13.644Z,92676.18
2019-05-19T22:08:42.036Z,92674.95
2019-05-19T22:11:10.417Z,92670.49
2019-05-19T22:13:38.814Z,92667.17
2019-05-19T22:16:12.741Z,92671.74
2019-05-19T22:18:37.296Z,92663.73
2019-05-19T22:21:05.926Z,92671.68
2019-05-19T22:23:34.571Z,92677.78
2019-05-19T22:26:03.129Z,92676.92
2019-05-19T22:28:31.834Z,92677.78
2019-05-19T22:31:00.220Z,92673.38
2019-05-19T22:33:28.607Z,92675.16
2019-05-19T22:35:57.006Z,92668.05
2019-05-19T22:38:25.396Z,92670.00
2019-05-19T22:40:53.778Z,92665.84
2019-05-19T22:43:22.170Z,92665.06
2019-05-19T22:45:50.550Z,92667.16
2019-05-19T22:48:18.941Z,92655.89
2019-05-19T22:50:47.324Z,92656.20
2019-05-19T22:53:15.711Z,92660.07
2019-05-19T22:55:44.364Z,92661.60
2019-05-19T22:58:12.755Z,92662.32
2019-05-19T23:00:41.379Z,92659.48
2019-05-19T23:03:09.762Z,92661.17
2019-05-19T23:05:38.233Z,92652.64
2019-05-19T23:08:06.972Z,92652.16
2019-05-19T23:10:35.359Z,92656.02
2019-05-19T23:13:03.990Z,92650.56
2019-05-19T23:15:32.619Z,92652.95
2019-05-19T23:18:01.020Z,92654.04
2019-05-19T23:20:29.689Z,92652.73
2019-05-19T23:22:58.079Z,92649.41
2019-05-19T23:25:26.752Z,92650.48
2019-05-19T23:27:55.156Z,92650.71
2019-05-19T23:30:23.767Z,92646.03
2019-05-19T23:32:52.148Z,92656.20
2019-05-19T23:35:20.542Z,92660.36
2019-05-19T23:37:48.927Z,92658.97
2019-05-19T23:40:17.326Z,92657.41
2019-05-19T23:42:45.714Z,92658.72
2019-05-19T23:45:14.714Z,92652.73
2019-05-19T23:47:43.088Z,92656.35
2019-05-19T23:50:11.977Z,92648.72
2019-05-19T23:52:40.389Z,92647.64
2019-05-19T23:55:10.223Z,92643.41
2019-05-19T23:57:38.854Z,92640.45
